SAS4822 EDDH-EKCH
Flight info
| Callsign | SAS4822 |
|---|---|
| Flight time | 0h 33m |
| Altitude | 23000 |
| Route | LUGEG3G/33 LUGEG P605 GESKA/N0373F220 Z711 MONAK |
| Aircraft | A20N/M-SDE2E3FGHIRWXY/LB1 |
Departure
| Time | 2026-05-04 14:46 |
|---|---|
| Airport | Hamburg Helmut Schmidt Airport (EDDH) |
Arrival
| Time | 2026-05-04 15:19 |
|---|---|
| Airport | Copenhagen Kastrup Airport (EKCH) |
| Time | Latitude | Longitude | Altitude | Speed | Heading |
|---|---|---|---|---|---|
| 2026-05-04 14:31 | 53.63112 | 10.00370 | 50 ft | 0 kts | 86° |
| 2026-05-04 14:40 | 53.63112 | 10.00361 | 49 ft | 3 kts | 86° |
| 2026-05-04 14:41 | 53.63111 | 10.00324 | 45 ft | 3 kts | 86° |
| 2026-05-04 14:41 | 53.63113 | 10.00287 | 45 ft | 3 kts | 119° |
| 2026-05-04 14:41 | 53.63134 | 10.00259 | 47 ft | 0 kts | 179° |
| 2026-05-04 14:44 | 53.63128 | 10.00259 | 47 ft | 5 kts | 179° |
| 2026-05-04 14:44 | 53.63045 | 10.00236 | 50 ft | 16 kts | 209° |
| 2026-05-04 14:45 | 53.62943 | 10.00129 | 50 ft | 19 kts | 212° |
| 2026-05-04 14:45 | 53.62873 | 10.00044 | 49 ft | 9 kts | 231° |
| 2026-05-04 14:45 | 53.62835 | 9.99930 | 47 ft | 13 kts | 243° |
| 2026-05-04 14:45 | 53.62813 | 9.99787 | 48 ft | 6 kts | 311° |
| 2026-05-04 14:46 | 53.62866 | 9.99743 | 49 ft | 27 kts | 332° |
| 2026-05-04 14:46 | 53.63310 | 9.99359 | 51 ft | 112 kts | 333° |
| 2026-05-04 14:46 | 53.64169 | 9.98633 | 380 ft | 147 kts | 332° |
| 2026-05-04 14:46 | 53.65109 | 9.97828 | 1194 ft | 157 kts | 331° |
| 2026-05-04 14:47 | 53.66122 | 9.96976 | 2025 ft | 169 kts | 331° |
| 2026-05-04 14:47 | 53.67217 | 9.96056 | 2855 ft | 182 kts | 330° |
| 2026-05-04 14:47 | 53.68437 | 9.95126 | 3543 ft | 207 kts | 333° |
| 2026-05-04 14:47 | 53.69873 | 9.94313 | 4301 ft | 230 kts | 349° |
| 2026-05-04 14:48 | 53.71502 | 9.94244 | 5514 ft | 231 kts | 359° |
| 2026-05-04 14:48 | 53.73080 | 9.94818 | 6560 ft | 242 kts | 24° |
| 2026-05-04 14:48 | 53.74370 | 9.96657 | 7633 ft | 248 kts | 53° |
| 2026-05-04 14:48 | 53.75218 | 9.99254 | 8533 ft | 262 kts | 65° |
| 2026-05-04 14:49 | 53.75964 | 10.02198 | 9212 ft | 283 kts | 67° |
| 2026-05-04 14:49 | 53.76749 | 10.05393 | 9855 ft | 304 kts | 66° |
| 2026-05-04 14:49 | 53.77619 | 10.08746 | 10560 ft | 321 kts | 65° |
| 2026-05-04 14:49 | 53.78596 | 10.12310 | 11013 ft | 346 kts | 64° |
| 2026-05-04 14:50 | 53.79666 | 10.16085 | 11600 ft | 362 kts | 63° |
| 2026-05-04 14:50 | 53.80777 | 10.19957 | 12513 ft | 368 kts | 63° |
| 2026-05-04 14:50 | 53.81905 | 10.23884 | 13450 ft | 374 kts | 63° |
| 2026-05-04 14:50 | 53.83052 | 10.27882 | 14269 ft | 381 kts | 63° |
| 2026-05-04 14:51 | 53.84216 | 10.31952 | 15059 ft | 387 kts | 63° |
| 2026-05-04 14:51 | 53.85398 | 10.36093 | 15868 ft | 393 kts | 63° |
| 2026-05-04 14:51 | 53.86596 | 10.40303 | 16665 ft | 399 kts | 63° |
| 2026-05-04 14:51 | 53.87810 | 10.44578 | 17440 ft | 405 kts | 63° |
| 2026-05-04 14:52 | 53.89039 | 10.48910 | 18214 ft | 411 kts | 63° |
| 2026-05-04 14:52 | 53.90286 | 10.53317 | 18888 ft | 417 kts | 63° |
| 2026-05-04 14:52 | 53.91547 | 10.57782 | 19550 ft | 422 kts | 63° |
| 2026-05-04 14:52 | 53.92825 | 10.62304 | 20226 ft | 427 kts | 62° |
| 2026-05-04 14:53 | 53.94330 | 10.66677 | 20879 ft | 431 kts | 53° |
| 2026-05-04 14:53 | 53.96205 | 10.70657 | 21528 ft | 433 kts | 44° |
| 2026-05-04 14:53 | 53.98285 | 10.74400 | 22158 ft | 439 kts | 43° |
| 2026-05-04 14:53 | 54.00387 | 10.78210 | 22591 ft | 445 kts | 44° |
| 2026-05-04 14:54 | 54.02496 | 10.82054 | 22706 ft | 444 kts | 44° |
| 2026-05-04 14:54 | 54.04603 | 10.85906 | 22821 ft | 445 kts | 44° |
| 2026-05-04 14:54 | 54.06714 | 10.89771 | 22931 ft | 446 kts | 44° |
| 2026-05-04 14:54 | 54.08828 | 10.93645 | 22974 ft | 447 kts | 44° |
| 2026-05-04 14:55 | 54.10944 | 10.97527 | 22972 ft | 447 kts | 44° |
| 2026-05-04 14:55 | 54.13028 | 11.01360 | 22970 ft | 447 kts | 44° |
| 2026-05-04 14:55 | 54.15162 | 11.05312 | 22970 ft | 447 kts | 44° |
| 2026-05-04 14:55 | 54.17236 | 11.09164 | 22968 ft | 447 kts | 44° |
| 2026-05-04 14:56 | 54.19340 | 11.13078 | 22968 ft | 447 kts | 44° |
| 2026-05-04 14:56 | 54.21466 | 11.17037 | 22970 ft | 447 kts | 44° |
| 2026-05-04 14:56 | 54.23538 | 11.20909 | 22969 ft | 447 kts | 44° |
| 2026-05-04 14:56 | 54.25639 | 11.24843 | 22968 ft | 447 kts | 44° |
| 2026-05-04 14:57 | 54.27733 | 11.28771 | 22968 ft | 448 kts | 45° |
| 2026-05-04 14:57 | 54.29835 | 11.32719 | 22967 ft | 448 kts | 45° |
| 2026-05-04 14:57 | 54.31931 | 11.36663 | 22972 ft | 448 kts | 45° |
| 2026-05-04 14:57 | 54.34028 | 11.40614 | 22971 ft | 448 kts | 45° |
| 2026-05-04 14:58 | 54.36122 | 11.44566 | 22975 ft | 448 kts | 45° |
| 2026-05-04 14:58 | 54.38215 | 11.48520 | 22971 ft | 448 kts | 45° |
| 2026-05-04 14:58 | 54.40308 | 11.52471 | 22969 ft | 448 kts | 45° |
| 2026-05-04 14:58 | 54.42406 | 11.56432 | 22966 ft | 448 kts | 45° |
| 2026-05-04 14:59 | 54.44500 | 11.60394 | 22968 ft | 448 kts | 45° |
| 2026-05-04 14:59 | 54.46591 | 11.64355 | 22965 ft | 448 kts | 45° |
| 2026-05-04 14:59 | 54.50775 | 11.72295 | 22964 ft | 448 kts | 45° |
| 2026-05-04 15:00 | 54.52871 | 11.76280 | 22965 ft | 448 kts | 45° |
| 2026-05-04 15:00 | 54.54962 | 11.80259 | 22966 ft | 449 kts | 45° |
| 2026-05-04 15:00 | 54.57052 | 11.84246 | 22957 ft | 449 kts | 45° |
| 2026-05-04 15:01 | 54.61297 | 11.92152 | 22965 ft | 447 kts | 39° |
| 2026-05-04 15:01 | 54.63672 | 11.95452 | 22962 ft | 443 kts | 30° |
| 2026-05-04 15:01 | 54.66232 | 11.98381 | 22961 ft | 441 kts | 29° |
| 2026-05-04 15:01 | 54.68789 | 12.01326 | 22962 ft | 441 kts | 29° |
| 2026-05-04 15:02 | 54.71338 | 12.04280 | 22963 ft | 441 kts | 30° |
| 2026-05-04 15:02 | 54.73884 | 12.07234 | 22961 ft | 441 kts | 30° |
| 2026-05-04 15:02 | 54.76434 | 12.10196 | 22952 ft | 441 kts | 30° |
| 2026-05-04 15:02 | 54.78974 | 12.13148 | 22656 ft | 439 kts | 30° |
| 2026-05-04 15:03 | 54.81506 | 12.16094 | 22007 ft | 439 kts | 30° |
| 2026-05-04 15:03 | 54.84053 | 12.19058 | 21126 ft | 442 kts | 30° |
| 2026-05-04 15:03 | 54.86607 | 12.22036 | 20290 ft | 442 kts | 30° |
| 2026-05-04 15:03 | 54.89142 | 12.25000 | 19644 ft | 437 kts | 30° |
| 2026-05-04 15:04 | 54.91646 | 12.27934 | 19012 ft | 432 kts | 30° |
| 2026-05-04 15:04 | 54.94122 | 12.30837 | 18389 ft | 426 kts | 30° |
| 2026-05-04 15:04 | 54.96562 | 12.33702 | 17538 ft | 419 kts | 30° |
| 2026-05-04 15:04 | 54.98961 | 12.36516 | 16500 ft | 413 kts | 30° |
| 2026-05-04 15:05 | 55.01329 | 12.39295 | 15541 ft | 408 kts | 30° |
| 2026-05-04 15:05 | 55.03643 | 12.41999 | 14988 ft | 391 kts | 30° |
| 2026-05-04 15:05 | 55.05865 | 12.44593 | 14466 ft | 378 kts | 30° |
| 2026-05-04 15:05 | 55.08013 | 12.47103 | 13941 ft | 366 kts | 30° |
| 2026-05-04 15:06 | 55.10097 | 12.49541 | 13398 ft | 355 kts | 30° |
| 2026-05-04 15:06 | 55.12117 | 12.51906 | 12909 ft | 344 kts | 30° |
| 2026-05-04 15:06 | 55.14142 | 12.54272 | 12416 ft | 366 kts | 30° |
| 2026-05-04 15:07 | 55.18554 | 12.59436 | 11881 ft | 376 kts | 30° |
| 2026-05-04 15:07 | 55.20671 | 12.61945 | 11714 ft | 359 kts | 30° |
| 2026-05-04 15:07 | 55.22707 | 12.64243 | 11520 ft | 337 kts | 24° |
| 2026-05-04 15:07 | 55.24776 | 12.65861 | 11267 ft | 316 kts | 14° |
| 2026-05-04 15:08 | 55.26846 | 12.67026 | 10716 ft | 310 kts | 12° |
| 2026-05-04 15:08 | 55.28865 | 12.68164 | 10336 ft | 300 kts | 13° |
| 2026-05-04 15:08 | 55.30814 | 12.69274 | 9978 ft | 289 kts | 13° |
| 2026-05-04 15:08 | 55.32697 | 12.70350 | 9660 ft | 278 kts | 13° |
| 2026-05-04 15:09 | 55.34528 | 12.71395 | 9340 ft | 283 kts | 12° |
| 2026-05-04 15:09 | 55.36516 | 12.72507 | 8975 ft | 311 kts | 13° |
| 2026-05-04 15:09 | 55.38560 | 12.73670 | 8875 ft | 304 kts | 13° |
| 2026-05-04 15:10 | 55.42478 | 12.75933 | 8450 ft | 292 kts | 13° |
| 2026-05-04 15:10 | 55.44401 | 12.77039 | 8068 ft | 290 kts | 13° |
| 2026-05-04 15:10 | 55.48207 | 12.79225 | 7283 ft | 286 kts | 13° |
| 2026-05-04 15:11 | 55.50089 | 12.80306 | 6910 ft | 283 kts | 13° |
| 2026-05-04 15:11 | 55.51952 | 12.81381 | 6557 ft | 280 kts | 13° |
| 2026-05-04 15:11 | 55.53799 | 12.82447 | 6248 ft | 280 kts | 13° |
| 2026-05-04 15:11 | 55.55653 | 12.83520 | 5948 ft | 279 kts | 14° |
| 2026-05-04 15:12 | 55.57444 | 12.84795 | 5660 ft | 275 kts | 17° |
| 2026-05-04 15:12 | 55.59220 | 12.86077 | 5376 ft | 277 kts | 17° |
| 2026-05-04 15:12 | 55.61000 | 12.87356 | 5084 ft | 274 kts | 17° |
| 2026-05-04 15:12 | 55.62675 | 12.88812 | 4908 ft | 269 kts | 27° |
| 2026-05-04 15:13 | 55.64136 | 12.90781 | 4798 ft | 260 kts | 38° |
| 2026-05-04 15:13 | 55.65467 | 12.92835 | 4692 ft | 246 kts | 29° |
| 2026-05-04 15:13 | 55.66982 | 12.93810 | 4590 ft | 223 kts | 356° |
| 2026-05-04 15:13 | 55.68421 | 12.93347 | 4491 ft | 202 kts | 330° |
| 2026-05-04 15:14 | 55.69593 | 12.92079 | 4290 ft | 196 kts | 322° |
| 2026-05-04 15:14 | 55.70740 | 12.90759 | 3949 ft | 198 kts | 323° |
| 2026-05-04 15:14 | 55.71909 | 12.89470 | 3653 ft | 198 kts | 325° |
| 2026-05-04 15:14 | 55.72973 | 12.87990 | 3344 ft | 193 kts | 302° |
| 2026-05-04 15:15 | 55.73339 | 12.85761 | 3026 ft | 192 kts | 267° |
| 2026-05-04 15:15 | 55.72925 | 12.83537 | 2797 ft | 190 kts | 241° |
| 2026-05-04 15:15 | 55.72116 | 12.81746 | 2685 ft | 184 kts | 230° |
| 2026-05-04 15:16 | 55.70292 | 12.78768 | 2146 ft | 176 kts | 226° |
| 2026-05-04 15:16 | 55.69373 | 12.77336 | 1880 ft | 170 kts | 225° |
| 2026-05-04 15:16 | 55.68003 | 12.75214 | 1509 ft | 145 kts | 226° |
| 2026-05-04 15:17 | 55.67283 | 12.74100 | 1321 ft | 130 kts | 227° |
| 2026-05-04 15:17 | 55.65984 | 12.72077 | 974 ft | 127 kts | 226° |
| 2026-05-04 15:17 | 55.65324 | 12.71061 | 797 ft | 123 kts | 226° |
| 2026-05-04 15:18 | 55.64682 | 12.70078 | 589 ft | 124 kts | 225° |
| 2026-05-04 15:18 | 55.64028 | 12.69081 | 424 ft | 124 kts | 227° |
| 2026-05-04 15:18 | 55.63375 | 12.68060 | 263 ft | 126 kts | 226° |
| 2026-05-04 15:19 | 55.62076 | 12.66054 | 20 ft | 115 kts | 227° |
| 2026-05-04 15:19 | 55.61624 | 12.65337 | 15 ft | 52 kts | 222° |
| 2026-05-04 15:19 | 55.61268 | 12.64681 | 22 ft | 31 kts | 246° |
| 2026-05-04 15:20 | 55.61196 | 12.64318 | 17 ft | 27 kts | 251° |
| 2026-05-04 15:20 | 55.61252 | 12.64110 | 18 ft | 19 kts | 6° |
| 2026-05-04 15:20 | 55.61373 | 12.64222 | 21 ft | 21 kts | 32° |
| 2026-05-04 15:20 | 55.61501 | 12.64367 | 25 ft | 22 kts | 33° |
| 2026-05-04 15:21 | 55.61623 | 12.64506 | 24 ft | 20 kts | 32° |
| 2026-05-04 15:21 | 55.61760 | 12.64554 | 23 ft | 21 kts | 345° |
| 2026-05-04 15:21 | 55.62069 | 12.64448 | 20 ft | 24 kts | 348° |
| 2026-05-04 15:22 | 55.62228 | 12.64398 | 18 ft | 23 kts | 353° |
| 2026-05-04 15:22 | 55.62376 | 12.64443 | 19 ft | 19 kts | 16° |
| 2026-05-04 15:22 | 55.62547 | 12.64204 | 21 ft | 13 kts | 0° |
| 2026-05-04 15:23 | 55.62616 | 12.64148 | 21 ft | 9 kts | 304° |
| 2026-05-04 15:23 | 55.62658 | 12.64057 | 21 ft | 10 kts | 330° |
| 2026-05-04 15:23 | 55.62714 | 12.64086 | 20 ft | 3 kts | 33° |
| 2026-05-04 15:23 | 55.62722 | 12.64096 | 20 ft | 0 kts | 33° |